Terminal Aerodrome Forecast
Issued by NWS

Home | Current Version | Previous Version | Text Only | Print | Product List | Glossary On
Versions: 1 2 3 4 5 6 7 8 9 10 11 12 13 14 15 16 17
000
FTAK31 PAJN 080000 RRA
TAFAGY
TAF
PAGY 080015Z 0800/0824 21020G30KT P6SM BKN100
     FM080900 21011G18KT P6SM VCSH BKN040 OVC070
     FM081400 21010KT P6SM VCSH BKN040 OVC070
     FM082100 21016KT P6SM SCT050 BKN080
      AMD LTD TO CLD VIS AND WIND=

USA.gov is the U.S. government's official web portal to all federal, state and local government web resources and services.